sensor_id;sensor_type;location;lat;lon;timestamp;pressure;altitude;pressure_sealevel;temperature;humidity
78665;BME280;67981;51.022;-2.870;2024-03-23T08:07:57;100725.38;;;6.12;100.00
78665;BME280;67981;51.022;-2.870;2024-03-23T08:10:23;100692.69;;;6.26;100.00
78665;BME280;67981;51.022;-2.870;2024-03-23T08:12:48;100684.09;;;6.44;100.00
78665;BME280;67981;51.022;-2.870;2024-03-23T08:15:13;100647.94;;;6.59;100.00
78665;BME280;67981;51.022;-2.870;2024-03-23T08:17:39;100609.66;;;6.84;99.94
78665;BME280;67981;51.022;-2.870;2024-03-23T08:20:05;100579.16;;;6.91;99.58
78665;BME280;67981;51.022;-2.870;2024-03-23T08:22:30;100554.00;;;7.03;98.71
78665;BME280;67981;51.022;-2.870;2024-03-23T08:24:55;100528.28;;;7.02;98.01
78665;BME280;67981;51.022;-2.870;2024-03-23T08:27:21;100485.53;;;7.02;97.26
78665;BME280;67981;51.022;-2.870;2024-03-23T08:29:46;100441.28;;;7.08;96.36
78665;BME280;67981;51.022;-2.870;2024-03-23T08:32:11;100389.38;;;7.15;95.33
78665;BME280;67981;51.022;-2.870;2024-03-23T08:34:37;100370.22;;;7.31;94.57
78665;BME280;67981;51.022;-2.870;2024-03-23T08:37:03;100345.91;;;7.46;93.99
78665;BME280;67981;51.022;-2.870;2024-03-23T08:39:28;100297.81;;;7.67;93.26
78665;BME280;67981;51.022;-2.870;2024-03-23T08:41:53;100264.34;;;7.92;92.12
78665;BME280;67981;51.022;-2.870;2024-03-23T08:44:19;100213.88;;;7.94;91.26
78665;BME280;67981;51.022;-2.870;2024-03-23T08:46:44;100162.19;;;7.84;90.29
78665;BME280;67981;51.022;-2.870;2024-03-23T08:49:09;100092.16;;;7.60;89.34
78665;BME280;67981;51.022;-2.870;2024-03-23T08:51:36;100052.94;;;7.34;88.82
78665;BME280;67981;51.022;-2.870;2024-03-23T08:54:02;100016.56;;;7.19;88.70
78665;BME280;67981;51.022;-2.870;2024-03-23T08:56:27;100071.75;;;7.05;89.56
78665;BME280;67981;51.022;-2.870;2024-03-23T08:58:52;100130.16;;;6.87;90.50
78665;BME280;67981;51.022;-2.870;2024-03-23T09:01:18;100193.91;;;6.75;91.69
78665;BME280;67981;51.022;-2.870;2024-03-23T09:03:43;100243.31;;;6.71;92.46
78665;BME280;67981;51.022;-2.870;2024-03-23T09:06:11;100273.88;;;6.65;92.83
78665;BME280;67981;51.022;-2.870;2024-03-23T09:08:37;100300.28;;;6.39;93.10
78665;BME280;67981;51.022;-2.870;2024-03-23T09:11:06;100345.91;;;6.03;94.43
78665;BME280;67981;51.022;-2.870;2024-03-23T09:13:36;100416.94;;;5.87;96.11
78665;BME280;67981;51.022;-2.870;2024-03-23T09:16:02;100471.47;;;5.84;97.58
78665;BME280;67981;51.022;-2.870;2024-03-23T09:18:31;100525.19;;;6.03;98.64
78665;BME280;67981;51.022;-2.870;2024-03-23T09:20:56;100539.75;;;6.25;98.63
78665;BME280;67981;51.022;-2.870;2024-03-23T09:23:22;100535.44;;;6.44;97.90
78665;BME280;67981;51.022;-2.870;2024-03-23T09:25:47;100501.19;;;6.64;97.27
78665;BME280;67981;51.022;-2.870;2024-03-23T09:28:12;100483.81;;;6.79;97.26
78665;BME280;67981;51.022;-2.870;2024-03-23T09:30:38;100493.94;;;6.98;96.97
78665;BME280;67981;51.022;-2.870;2024-03-23T09:33:07;100463.22;;;7.00;96.13
78665;BME280;67981;51.022;-2.870;2024-03-23T09:35:39;100436.19;;;7.09;95.54
78665;BME280;67981;51.022;-2.870;2024-03-23T09:38:05;100420.50;;;7.26;95.27
78665;BME280;67981;51.022;-2.870;2024-03-23T09:40:32;100376.97;;;7.29;94.58
78665;BME280;67981;51.022;-2.870;2024-03-23T09:42:58;100345.75;;;7.15;94.11
78665;BME280;67981;51.022;-2.870;2024-03-23T09:45:27;100316.31;;;7.05;93.85
78665;BME280;67981;51.022;-2.870;2024-03-23T09:47:54;100300.00;;;7.03;93.82
78665;BME280;67981;51.022;-2.870;2024-03-23T09:50:20;100325.03;;;7.10;94.11
78665;BME280;67981;51.022;-2.870;2024-03-23T09:52:46;100342.78;;;7.04;94.53
78665;BME280;67981;51.022;-2.870;2024-03-23T09:55:12;100370.75;;;6.97;94.77
78665;BME280;67981;51.022;-2.870;2024-03-23T09:57:38;100418.88;;;7.04;95.94
78665;BME280;67981;51.022;-2.870;2024-03-23T10:00:05;100436.72;;;7.01;96.04
78665;BME280;67981;51.022;-2.870;2024-03-23T10:02:31;100343.97;;;6.89;94.32
78665;BME280;67981;51.022;-2.870;2024-03-23T10:04:56;100287.44;;;6.86;93.45
78665;BME280;67981;51.022;-2.870;2024-03-23T10:07:22;100240.66;;;6.93;92.29
78665;BME280;67981;51.022;-2.870;2024-03-23T10:09:48;100209.97;;;6.96;92.30
78665;BME280;67981;51.022;-2.870;2024-03-23T10:12:19;100185.38;;;7.02;91.78
78665;BME280;67981;51.022;-2.870;2024-03-23T10:14:45;100193.63;;;7.19;91.91
78665;BME280;67981;51.022;-2.870;2024-03-23T10:17:16;100189.94;;;7.38;91.53
78665;BME280;67981;51.022;-2.870;2024-03-23T10:19:46;100164.78;;;7.56;91.20
78665;BME280;67981;51.022;-2.870;2024-03-23T10:22:14;100130.50;;;7.83;90.57
78665;BME280;67981;51.022;-2.870;2024-03-23T10:24:40;100098.22;;;7.93;90.14
78665;BME280;67981;51.022;-2.870;2024-03-23T10:27:06;100073.34;;;7.90;90.07
78665;BME280;67981;51.022;-2.870;2024-03-23T10:29:31;100091.84;;;7.49;91.03
78665;BME280;67981;51.022;-2.870;2024-03-23T10:32:13;100173.72;;;7.12;92.84
78665;BME280;67981;51.022;-2.870;2024-03-23T10:34:39;100240.44;;;6.87;94.19
78665;BME280;67981;51.022;-2.870;2024-03-23T10:37:05;100313.53;;;6.74;95.41
78665;BME280;67981;51.022;-2.870;2024-03-23T10:42:05;100452.31;;;6.60;98.31
78665;BME280;67981;51.022;-2.870;2024-03-23T10:44:31;100501.44;;;6.28;99.41
78665;BME280;67981;51.022;-2.870;2024-03-23T10:46:58;100472.94;;;5.58;100.00
78665;BME280;67981;51.022;-2.870;2024-03-23T10:49:30;100545.94;;;5.50;100.00
78665;BME280;67981;51.022;-2.870;2024-03-23T10:51:59;100572.13;;;5.64;100.00
78665;BME280;67981;51.022;-2.870;2024-03-23T10:54:26;100588.75;;;5.73;100.00
78665;BME280;67981;51.022;-2.870;2024-03-23T10:57:03;100623.41;;;6.04;100.00
78665;BME280;67981;51.022;-2.870;2024-03-23T10:59:31;100639.19;;;6.33;100.00
78665;BME280;67981;51.022;-2.870;2024-03-23T11:02:00;100641.91;;;6.57;100.00
78665;BME280;67981;51.022;-2.870;2024-03-23T11:04:31;100648.81;;;6.80;100.00
78665;BME280;67981;51.022;-2.870;2024-03-23T11:06:57;100636.59;;;6.95;100.00
78665;BME280;67981;51.022;-2.870;2024-03-23T11:12:17;100631.56;;;7.64;100.00
78665;BME280;67981;51.022;-2.870;2024-03-23T11:17:24;100525.28;;;7.61;100.00
78665;BME280;67981;51.022;-2.870;2024-03-23T11:25:02;100419.81;;;7.06;98.81
78665;BME280;67981;51.022;-2.870;2024-03-23T11:27:28;100420.03;;;7.12;99.07
78665;BME280;67981;51.022;-2.870;2024-03-23T11:29:53;100424.25;;;7.35;99.08
78665;BME280;67981;51.022;-2.870;2024-03-23T11:32:19;100418.47;;;7.66;99.00
78665;BME280;67981;51.022;-2.870;2024-03-23T11:34:44;100411.78;;;7.97;98.42
78665;BME280;67981;51.022;-2.870;2024-03-23T11:37:09;100363.06;;;8.27;96.99
78665;BME280;67981;51.022;-2.870;2024-03-23T11:39:35;100327.75;;;8.21;96.06
78665;BME280;67981;51.022;-2.870;2024-03-23T11:42:00;100254.34;;;8.01;95.13
78665;BME280;67981;51.022;-2.870;2024-03-23T11:44:26;100243.13;;;8.27;94.61
78665;BME280;67981;51.022;-2.870;2024-03-23T11:46:52;100140.63;;;8.39;92.20
78665;BME280;67981;51.022;-2.870;2024-03-23T11:51:49;99943.34;;;8.70;88.34
78665;BME280;67981;51.022;-2.870;2024-03-23T11:54:15;99875.81;;;8.81;87.25
78665;BME280;67981;51.022;-2.870;2024-03-23T11:59:35;99680.09;;;9.20;84.25
78665;BME280;67981;51.022;-2.870;2024-03-23T12:02:05;99658.41;;;9.62;84.12
78665;BME280;67981;51.022;-2.870;2024-03-23T12:04:31;99544.16;;;9.59;82.25
78665;BME280;67981;51.022;-2.870;2024-03-23T12:09:44;99321.66;;;9.40;79.76
78665;BME280;67981;51.022;-2.870;2024-03-23T12:12:17;99207.28;;;9.08;79.12
78665;BME280;67981;51.022;-2.870;2024-03-23T12:17:13;99055.19;;;8.65;77.20
78665;BME280;67981;51.022;-2.870;2024-03-23T12:19:39;99011.34;;;8.46;76.91
78665;BME280;67981;51.022;-2.870;2024-03-23T12:22:05;99090.97;;;8.40;77.42
78665;BME280;67981;51.022;-2.870;2024-03-23T12:24:32;99167.50;;;7.92;78.61
78665;BME280;67981;51.022;-2.870;2024-03-23T12:27:03;99367.22;;;7.55;81.27
78665;BME280;67981;51.022;-2.870;2024-03-23T12:29:34;99445.75;;;6.99;82.35
78665;BME280;67981;51.022;-2.870;2024-03-23T12:32:01;99532.97;;;6.62;83.47
78665;BME280;67981;51.022;-2.870;2024-03-23T12:34:27;99600.84;;;6.43;84.29
78665;BME280;67981;51.022;-2.870;2024-03-23T12:36:53;99696.00;;;6.24;85.34
78665;BME280;67981;51.022;-2.870;2024-03-23T12:39:19;99822.09;;;6.16;86.81
78665;BME280;67981;51.022;-2.870;2024-03-23T12:41:46;99925.44;;;6.16;88.67
78665;BME280;67981;51.022;-2.870;2024-03-23T12:44:12;100012.03;;;6.01;89.86
78665;BME280;67981;51.022;-2.870;2024-03-23T12:46:38;100083.28;;;5.88;91.08
78665;BME280;67981;51.022;-2.870;2024-03-23T12:49:04;100142.38;;;5.94;92.42
78665;BME280;67981;51.022;-2.870;2024-03-23T12:51:30;100201.53;;;6.01;93.59
78665;BME280;67981;51.022;-2.870;2024-03-23T12:53:55;100242.50;;;6.23;94.16
78665;BME280;67981;51.022;-2.870;2024-03-23T12:56:21;100254.91;;;6.36;94.93
78665;BME280;67981;51.022;-2.870;2024-03-23T12:58:46;100281.56;;;6.41;95.45
78665;BME280;67981;51.022;-2.870;2024-03-23T13:01:16;100325.13;;;6.41;96.40
78665;BME280;67981;51.022;-2.870;2024-03-23T13:03:42;100336.63;;;6.29;96.17
78665;BME280;67981;51.022;-2.870;2024-03-23T13:06:09;100362.88;;;6.22;97.03
78665;BME280;67981;51.022;-2.870;2024-03-23T13:08:35;100405.88;;;6.08;97.95
78665;BME280;67981;51.022;-2.870;2024-03-23T13:11:00;100413.59;;;5.88;98.85
78665;BME280;67981;51.022;-2.870;2024-03-23T13:13:25;100432.84;;;5.79;99.70
78665;BME280;67981;51.022;-2.870;2024-03-23T13:15:51;100464.84;;;5.68;100.00
78665;BME280;67981;51.022;-2.870;2024-03-23T13:18:16;100479.66;;;5.77;100.00
78665;BME280;67981;51.022;-2.870;2024-03-23T13:20:42;100506.69;;;5.90;100.00
78665;BME280;67981;51.022;-2.870;2024-03-23T13:23:08;100549.13;;;6.24;100.00
78665;BME280;67981;51.022;-2.870;2024-03-23T13:25:34;100568.19;;;6.73;100.00
78665;BME280;67981;51.022;-2.870;2024-03-23T13:27:59;100554.19;;;6.86;100.00
78665;BME280;67981;51.022;-2.870;2024-03-23T13:30:26;100576.94;;;6.78;100.00
78665;BME280;67981;51.022;-2.870;2024-03-23T13:32:51;100586.41;;;6.59;100.00
78665;BME280;67981;51.022;-2.870;2024-03-23T13:35:17;100592.47;;;6.61;100.00
78665;BME280;67981;51.022;-2.870;2024-03-23T13:37:42;100597.50;;;6.80;100.00
78665;BME280;67981;51.022;-2.870;2024-03-23T13:40:08;100587.69;;;6.90;100.00
78665;BME280;67981;51.022;-2.870;2024-03-23T13:42:34;100585.75;;;6.85;100.00
78665;BME280;67981;51.022;-2.870;2024-03-23T13:44:59;100591.75;;;7.07;100.00
78665;BME280;67981;51.022;-2.870;2024-03-23T13:47:25;100596.25;;;7.35;100.00
78665;BME280;67981;51.022;-2.870;2024-03-23T13:49:50;100617.72;;;7.61;100.00
78665;BME280;67981;51.022;-2.870;2024-03-23T13:52:15;100586.38;;;7.46;100.00
78665;BME280;67981;51.022;-2.870;2024-03-23T13:54:41;100575.31;;;7.25;100.00
78665;BME280;67981;51.022;-2.870;2024-03-23T13:57:11;100556.75;;;7.32;100.00
78665;BME280;67981;51.022;-2.870;2024-03-23T13:59:37;100513.94;;;7.31;100.00
78665;BME280;67981;51.022;-2.870;2024-03-23T14:02:02;100441.53;;;7.39;100.00
78665;BME280;67981;51.022;-2.870;2024-03-23T14:04:28;100366.72;;;7.54;100.00
78665;BME280;67981;51.022;-2.870;2024-03-23T14:06:53;100260.88;;;7.64;97.24
78665;BME280;67981;51.022;-2.870;2024-03-23T14:09:19;100169.03;;;7.54;95.40
78665;BME280;67981;51.022;-2.870;2024-03-23T14:11:47;100094.25;;;7.43;93.57
78665;BME280;67981;51.022;-2.870;2024-03-23T14:14:13;100042.09;;;7.44;92.77
78665;BME280;67981;51.022;-2.870;2024-03-23T14:16:42;100040.91;;;7.63;92.69
78665;BME280;67981;51.022;-2.870;2024-03-23T14:19:07;100042.75;;;8.01;92.49
78665;BME280;67981;51.022;-2.870;2024-03-23T14:21:33;99995.47;;;8.25;91.22
78665;BME280;67981;51.022;-2.870;2024-03-23T14:23:59;99941.25;;;8.52;90.13
78665;BME280;67981;51.022;-2.870;2024-03-23T14:26:26;99866.22;;;8.71;88.82
78665;BME280;67981;51.022;-2.870;2024-03-23T14:28:52;99802.31;;;8.92;87.29
78665;BME280;67981;51.022;-2.870;2024-03-23T14:31:17;99672.69;;;8.84;85.58
78665;BME280;67981;51.022;-2.870;2024-03-23T14:33:42;99645.59;;;9.07;85.05
78665;BME280;67981;51.022;-2.870;2024-03-23T14:36:13;99595.13;;;9.18;84.45
78665;BME280;67981;51.022;-2.870;2024-03-23T14:38:38;99548.91;;;9.26;83.68
78665;BME280;67981;51.022;-2.870;2024-03-23T14:41:03;99434.59;;;9.10;82.20
78665;BME280;67981;51.022;-2.870;2024-03-23T14:43:29;99323.00;;;9.04;80.78
78665;BME280;67981;51.022;-2.870;2024-03-23T14:46:21;99245.09;;;9.17;79.49
78665;BME280;67981;51.022;-2.870;2024-03-23T14:48:47;99094.16;;;9.28;78.10
78665;BME280;67981;51.022;-2.870;2024-03-23T14:51:13;99050.50;;;9.50;77.08
78665;BME280;67981;51.022;-2.870;2024-03-23T14:53:39;99052.34;;;9.78;77.08
78665;BME280;67981;51.022;-2.870;2024-03-23T14:56:06;98958.75;;;9.93;75.79
78665;BME280;67981;51.022;-2.870;2024-03-23T14:58:31;98744.13;;;9.58;73.99
78665;BME280;67981;51.022;-2.870;2024-03-23T15:01:04;98711.50;;;9.60;73.94
78665;BME280;67981;51.022;-2.870;2024-03-23T15:03:30;98743.22;;;9.80;73.89
78665;BME280;67981;51.022;-2.870;2024-03-23T15:05:56;98688.34;;;9.46;73.81
78665;BME280;67981;51.022;-2.870;2024-03-23T15:08:22;98711.53;;;9.25;74.16
78665;BME280;67981;51.022;-2.870;2024-03-23T15:10:48;98724.41;;;9.22;74.07
78665;BME280;67981;51.022;-2.870;2024-03-23T15:13:13;98627.50;;;9.03;72.81
78665;BME280;67981;51.022;-2.870;2024-03-23T15:15:43;98546.94;;;8.62;72.57
78665;BME280;67981;51.022;-2.870;2024-03-23T15:18:15;98689.28;;;7.05;75.87
78665;BME280;67981;51.022;-2.870;2024-03-23T15:20:52;98913.09;;;6.28;78.14
78665;BME280;67981;51.022;-2.870;2024-03-23T15:23:17;99126.00;;;6.00;79.72
78665;BME280;67981;51.022;-2.870;2024-03-23T15:25:42;99265.03;;;5.58;81.39
78665;BME280;67981;51.022;-2.870;2024-03-23T15:28:08;99481.28;;;5.44;83.40
78665;BME280;67981;51.022;-2.870;2024-03-23T15:30:33;99635.28;;;5.05;85.84
78665;BME280;67981;51.022;-2.870;2024-03-23T15:32:58;99798.47;;;4.91;87.88
78665;BME280;67981;51.022;-2.870;2024-03-23T15:35:24;99948.00;;;5.02;90.15
78665;BME280;67981;51.022;-2.870;2024-03-23T15:37:50;100064.28;;;5.59;92.40
78665;BME280;67981;51.022;-2.870;2024-03-23T15:40:16;100099.22;;;5.35;92.95
78665;BME280;67981;51.022;-2.870;2024-03-23T15:42:41;100142.22;;;5.21;94.21
78665;BME280;67981;51.022;-2.870;2024-03-23T15:45:07;100195.53;;;5.33;95.14
78665;BME280;67981;51.022;-2.870;2024-03-23T15:47:34;100219.53;;;5.36;95.61
78665;BME280;67981;51.022;-2.870;2024-03-23T15:49:59;100235.75;;;5.37;96.18
78665;BME280;67981;51.022;-2.870;2024-03-23T15:52:25;100270.78;;;5.38;96.31
78665;BME280;67981;51.022;-2.870;2024-03-23T15:54:50;100272.97;;;5.51;96.15
78665;BME280;67981;51.022;-2.870;2024-03-23T15:57:18;100288.94;;;5.66;95.99
78665;BME280;67981;51.022;-2.870;2024-03-23T15:59:43;100275.25;;;5.86;95.47
78665;BME280;67981;51.022;-2.870;2024-03-23T16:02:09;100253.53;;;6.22;94.87
78665;BME280;67981;51.022;-2.870;2024-03-23T16:04:34;100263.91;;;6.49;94.71
78665;BME280;67981;51.022;-2.870;2024-03-23T16:07:00;100240.50;;;6.63;94.20
78665;BME280;67981;51.022;-2.870;2024-03-23T16:09:26;100223.09;;;6.80;93.66
78665;BME280;67981;51.022;-2.870;2024-03-23T16:11:53;100227.53;;;6.84;93.65
78665;BME280;67981;51.022;-2.870;2024-03-23T16:14:19;100200.00;;;7.05;92.73
78665;BME280;67981;51.022;-2.870;2024-03-23T16:16:44;100194.84;;;7.32;91.90
78665;BME280;67981;51.022;-2.870;2024-03-23T16:19:09;100144.28;;;7.57;90.93
78665;BME280;67981;51.022;-2.870;2024-03-23T16:21:37;100069.31;;;7.69;89.58
78665;BME280;67981;51.022;-2.870;2024-03-23T16:24:02;99992.72;;;7.85;88.23
78665;BME280;67981;51.022;-2.870;2024-03-23T16:26:27;99872.97;;;7.90;86.35
78665;BME280;67981;51.022;-2.870;2024-03-23T16:28:53;99734.47;;;8.01;84.00
78665;BME280;67981;51.022;-2.870;2024-03-23T16:31:18;99575.28;;;8.05;81.82
78665;BME280;67981;51.022;-2.870;2024-03-23T16:33:43;99432.16;;;7.98;80.46
78665;BME280;67981;51.022;-2.870;2024-03-23T16:36:10;99319.16;;;8.01;79.00
78665;BME280;67981;51.022;-2.870;2024-03-23T16:38:41;99219.03;;;8.06;77.88
78665;BME280;67981;51.022;-2.870;2024-03-23T16:41:08;99165.06;;;8.03;77.47
78665;BME280;67981;51.022;-2.870;2024-03-23T16:43:34;99109.41;;;8.02;77.12
78665;BME280;67981;51.022;-2.870;2024-03-23T16:46:04;99092.38;;;8.11;76.73
78665;BME280;67981;51.022;-2.870;2024-03-23T16:48:31;99045.09;;;7.94;76.57
78665;BME280;67981;51.022;-2.870;2024-03-23T16:50:58;99039.25;;;8.09;76.42
78665;BME280;67981;51.022;-2.870;2024-03-23T16:53:23;98994.69;;;8.05;76.17
78665;BME280;67981;51.022;-2.870;2024-03-23T16:55:57;98990.38;;;8.01;76.02
78665;BME280;67981;51.022;-2.870;2024-03-23T16:58:29;98999.84;;;8.05;76.19
78665;BME280;67981;51.022;-2.870;2024-03-23T17:00:55;98993.81;;;8.02;75.98
78665;BME280;67981;51.022;-2.870;2024-03-23T17:03:23;98968.91;;;7.96;75.61
78665;BME280;67981;51.022;-2.870;2024-03-23T17:05:49;98908.13;;;7.95;75.18
78665;BME280;67981;51.022;-2.870;2024-03-23T17:08:16;98868.75;;;7.95;74.75
78665;BME280;67981;51.022;-2.870;2024-03-23T17:10:41;98860.03;;;7.75;75.08
78665;BME280;67981;51.022;-2.870;2024-03-23T17:13:06;98856.59;;;7.70;75.20
78665;BME280;67981;51.022;-2.870;2024-03-23T17:15:32;98858.25;;;7.66;75.22
78665;BME280;67981;51.022;-2.870;2024-03-23T17:17:58;98884.72;;;7.62;75.25
78665;BME280;67981;51.022;-2.870;2024-03-23T17:20:24;98918.00;;;7.49;75.72
78665;BME280;67981;51.022;-2.870;2024-03-23T17:22:55;98982.91;;;7.42;76.20
78665;BME280;67981;51.022;-2.870;2024-03-23T17:25:21;98954.66;;;7.37;75.87
78665;BME280;67981;51.022;-2.870;2024-03-23T17:27:47;98964.97;;;7.45;75.63
78665;BME280;67981;51.022;-2.870;2024-03-23T17:30:13;98989.66;;;7.34;76.21
78665;BME280;67981;51.022;-2.870;2024-03-23T17:32:42;99073.44;;;7.30;76.91
78665;BME280;67981;51.022;-2.870;2024-03-23T17:35:09;99125.50;;;7.22;77.35
78665;BME280;67981;51.022;-2.870;2024-03-23T17:37:35;99169.03;;;7.17;77.63
78665;BME280;67981;51.022;-2.870;2024-03-23T17:40:01;99227.28;;;7.22;77.89
78665;BME280;67981;51.022;-2.870;2024-03-23T17:42:26;99273.34;;;7.15;78.39
78665;BME280;67981;51.022;-2.870;2024-03-23T17:44:52;99326.34;;;7.16;78.97
78665;BME280;67981;51.022;-2.870;2024-03-23T17:47:17;99359.03;;;7.26;78.66
78665;BME280;67981;51.022;-2.870;2024-03-23T17:49:42;99368.44;;;7.26;78.68
78665;BME280;67981;51.022;-2.870;2024-03-23T17:52:09;99400.09;;;7.26;79.00
78665;BME280;67981;51.022;-2.870;2024-03-23T17:54:37;99450.34;;;7.15;79.60
78665;BME280;67981;51.022;-2.870;2024-03-23T17:57:02;99495.72;;;7.19;79.66
78665;BME280;67981;51.022;-2.870;2024-03-23T17:59:28;99510.28;;;7.20;79.75
78665;BME280;67981;51.022;-2.870;2024-03-23T18:01:53;99533.22;;;7.12;80.22
78665;BME280;67981;51.022;-2.870;2024-03-23T18:04:19;99578.66;;;7.18;80.40
78665;BME280;67981;51.022;-2.870;2024-03-23T18:06:44;99613.56;;;7.10;80.79
78665;BME280;67981;51.022;-2.870;2024-03-23T18:09:11;99622.81;;;7.03;80.94
78665;BME280;67981;51.022;-2.870;2024-03-23T18:11:37;99669.56;;;6.92;81.27
78665;BME280;67981;51.022;-2.870;2024-03-23T18:14:02;99669.41;;;6.86;81.27
78665;BME280;67981;51.022;-2.870;2024-03-23T18:16:28;99697.41;;;6.78;81.97
78665;BME280;67981;51.022;-2.870;2024-03-23T18:18:54;99736.75;;;6.79;82.39
78665;BME280;67981;51.022;-2.870;2024-03-23T18:21:19;99768.50;;;6.84;82.33
78665;BME280;67981;51.022;-2.870;2024-03-23T18:23:46;99752.81;;;6.73;82.25
78665;BME280;67981;51.022;-2.870;2024-03-23T18:26:11;99776.97;;;6.81;82.18
78665;BME280;67981;51.022;-2.870;2024-03-23T18:28:37;99788.97;;;6.82;82.36
78665;BME280;67981;51.022;-2.870;2024-03-23T18:31:02;99790.59;;;6.79;82.44
78665;BME280;67981;51.022;-2.870;2024-03-23T18:33:35;99815.19;;;6.72;82.89
78665;BME280;67981;51.022;-2.870;2024-03-23T18:36:01;99827.84;;;6.66;82.94
78665;BME280;67981;51.022;-2.870;2024-03-23T18:38:26;99845.81;;;6.66;82.94
78665;BME280;67981;51.022;-2.870;2024-03-23T18:40:52;99855.09;;;6.63;83.42
78665;BME280;67981;51.022;-2.870;2024-03-23T18:43:17;99886.66;;;6.60;83.51
78665;BME280;67981;51.022;-2.870;2024-03-23T18:45:46;99897.63;;;6.56;83.78
78665;BME280;67981;51.022;-2.870;2024-03-23T18:48:12;99910.53;;;6.59;83.75
78665;BME280;67981;51.022;-2.870;2024-03-23T18:50:37;99909.19;;;6.72;83.66
78665;BME280;67981;51.022;-2.870;2024-03-23T18:53:03;99915.78;;;6.64;83.69
78665;BME280;67981;51.022;-2.870;2024-03-23T18:55:29;99917.50;;;6.63;84.09
78665;BME280;67981;51.022;-2.870;2024-03-23T18:57:54;99923.38;;;6.61;83.84
78665;BME280;67981;51.022;-2.870;2024-03-23T19:00:19;99931.91;;;6.60;84.08
78665;BME280;67981;51.022;-2.870;2024-03-23T19:02:45;99926.06;;;6.65;83.89
78665;BME280;67981;51.022;-2.870;2024-03-23T19:05:11;99945.69;;;6.63;83.86
78665;BME280;67981;51.022;-2.870;2024-03-23T19:07:36;99950.88;;;6.65;84.01
78665;BME280;67981;51.022;-2.870;2024-03-23T19:10:02;99937.38;;;6.72;83.90
78665;BME280;67981;51.022;-2.870;2024-03-23T19:12:28;99924.59;;;6.73;83.55
78665;BME280;67981;51.022;-2.870;2024-03-23T19:14:53;99909.34;;;6.76;83.26
78665;BME280;67981;51.022;-2.870;2024-03-23T19:17:19;99905.06;;;6.77;83.06
78665;BME280;67981;51.022;-2.870;2024-03-23T19:19:45;99899.97;;;6.78;83.26
78665;BME280;67981;51.022;-2.870;2024-03-23T19:22:10;99882.72;;;6.73;83.12
78665;BME280;67981;51.022;-2.870;2024-03-23T19:24:35;99875.97;;;6.75;82.90
78665;BME280;67981;51.022;-2.870;2024-03-23T19:27:01;99875.97;;;6.75;83.17
78665;BME280;67981;51.022;-2.870;2024-03-23T19:29:26;99884.59;;;6.78;83.12
78665;BME280;67981;51.022;-2.870;2024-03-23T19:31:52;99875.56;;;6.61;83.25
78665;BME280;67981;51.022;-2.870;2024-03-23T19:34:17;99894.47;;;6.65;83.23
78665;BME280;67981;51.022;-2.870;2024-03-23T19:36:42;99912.97;;;6.55;83.52
78665;BME280;67981;51.022;-2.870;2024-03-23T19:39:08;99912.59;;;6.43;83.62
78665;BME280;67981;51.022;-2.870;2024-03-23T19:41:33;100023.50;;;6.93;84.52
78665;BME280;67981;51.022;-2.870;2024-03-23T19:43:59;99977.63;;;6.46;84.36
78665;BME280;67981;51.022;-2.870;2024-03-23T19:46:24;99999.53;;;6.37;84.84
78665;BME280;67981;51.022;-2.870;2024-03-23T19:48:50;100024.13;;;6.32;84.85
78665;BME280;67981;51.022;-2.870;2024-03-23T19:51:15;100038.38;;;6.24;85.26
78665;BME280;67981;51.022;-2.870;2024-03-23T19:53:41;100064.06;;;6.25;85.69
78665;BME280;67981;51.022;-2.870;2024-03-23T19:56:06;100068.38;;;6.26;85.60
78665;BME280;67981;51.022;-2.870;2024-03-23T19:58:34;100072.44;;;6.20;85.75
78665;BME280;67981;51.022;-2.870;2024-03-23T20:01:16;100073.91;;;6.13;85.46
78665;BME280;67981;51.022;-2.870;2024-03-23T20:03:48;100078.00;;;6.08;85.99
78665;BME280;67981;51.022;-2.870;2024-03-23T20:06:14;100109.00;;;6.16;86.15
78665;BME280;67981;51.022;-2.870;2024-03-23T20:08:41;100123.84;;;6.01;86.39
78665;BME280;67981;51.022;-2.870;2024-03-23T20:11:06;100141.25;;;5.86;86.95
78665;BME280;67981;51.022;-2.870;2024-03-23T20:13:32;100172.28;;;5.72;87.50
78665;BME280;67981;51.022;-2.870;2024-03-23T20:15:58;100206.19;;;5.67;88.01
78665;BME280;67981;51.022;-2.870;2024-03-23T20:18:23;100227.16;;;5.57;88.56
78665;BME280;67981;51.022;-2.870;2024-03-23T20:20:53;100249.31;;;5.56;89.00
78665;BME280;67981;51.022;-2.870;2024-03-23T20:23:19;100252.66;;;5.54;88.98
78665;BME280;67981;51.022;-2.870;2024-03-23T20:25:56;100257.72;;;5.52;89.60
78665;BME280;67981;51.022;-2.870;2024-03-23T20:28:23;100264.56;;;5.53;89.33
78665;BME280;67981;51.022;-2.870;2024-03-23T20:33:20;100278.75;;;5.45;89.77
78665;BME280;67981;51.022;-2.870;2024-03-23T20:35:49;100288.28;;;5.49;89.93
78665;BME280;67981;51.022;-2.870;2024-03-23T20:38:18;100281.78;;;5.57;89.27
78665;BME280;67981;51.022;-2.870;2024-03-23T20:40:45;100258.69;;;5.56;88.96
78665;BME280;67981;51.022;-2.870;2024-03-23T20:43:11;100246.53;;;5.50;89.15
78665;BME280;67981;51.022;-2.870;2024-03-23T20:45:38;100256.06;;;5.54;89.40
78665;BME280;67981;51.022;-2.870;2024-03-23T20:48:04;100271.31;;;5.51;89.50
78665;BME280;67981;51.022;-2.870;2024-03-23T20:50:29;100268.44;;;5.44;89.94
78665;BME280;67981;51.022;-2.870;2024-03-23T20:52:55;100277.88;;;5.45;90.13
78665;BME280;67981;51.022;-2.870;2024-03-23T20:55:21;100294.88;;;5.44;90.29
78665;BME280;67981;51.022;-2.870;2024-03-23T20:57:47;100318.13;;;5.49;90.45
78665;BME280;67981;51.022;-2.870;2024-03-23T21:00:13;100315.03;;;5.57;90.47
78665;BME280;67981;51.022;-2.870;2024-03-23T21:02:40;100323.53;;;5.56;90.89
78665;BME280;67981;51.022;-2.870;2024-03-23T21:05:05;100326.66;;;5.49;90.86
78665;BME280;67981;51.022;-2.870;2024-03-23T21:07:31;100345.22;;;5.44;91.26
78665;BME280;67981;51.022;-2.870;2024-03-23T21:09:56;100366.34;;;5.40;91.68
78665;BME280;67981;51.022;-2.870;2024-03-23T21:12:22;100395.19;;;5.36;92.30
78665;BME280;67981;51.022;-2.870;2024-03-23T21:14:47;100397.56;;;5.31;92.71
78665;BME280;67981;51.022;-2.870;2024-03-23T21:17:15;100408.53;;;5.29;93.23
78665;BME280;67981;51.022;-2.870;2024-03-23T21:19:41;100421.56;;;5.35;93.60
78665;BME280;67981;51.022;-2.870;2024-03-23T21:22:06;100424.75;;;5.29;93.93